メインページ
METAR-TAF:

METAR-TAF

空港 :

アスンシオン, パラグアイ

シルビオ・ペッティロッシ国際空港

緯度: 25-16S, 経度: 057-38W, 海抜: 101m

現時点の気象観測

当レポートは41分前の00:00(UTC)に作成
の風 11kt
気温 28°C
湿度 45%
気圧 1008 hPa
視程10km以上
1,500メートル以下は雲なし、積乱雲なし

METAR: SGAS 120000Z 19011KT CAVOK 28/15 Q1008

時間: 21:41 (00:41 UTC)

予報

当レポートは2時間41分前の22:00(UTC)に作成
予報は12日の 00時(UTC)から 13日の 00時(UTC)まで有効
南/南西の風 10kt
視程10km以上
1,500メートル以下は雲なし、積乱雲なし
12日の 17時(UTC)から 12日の 20時(UTC)まで徐々に
変向風 8kt
視程10km以上
高度3300ftの雲は散在している
12日の 21時(UTC)から 12日の 23時(UTC)まで徐々に
北東の風 8kt
視程10km以上
1,500メートル以下は雲なし、積乱雲なし

TAF: SGAS 112200Z 1200/1300 21010KT CAVOK TX36/1218Z TN21/1209Z BECMG 1217/1220 VRB08KT 9999 SCT033 BECMG 1221/1223 05008KT CAVOK

4,000以上の空港の気象観測と天気予報(METAR報とTAF報)

利用可能な観測所は地図上に黄色い丸と赤い丸で示す。

丸の上にカーソルを重ねると観測所名を参照できる。

次にクリックすると気象観測と天気予報を参照できる。

マップの切り替え:黒色「×」印の緑ボタンをクリックして拡大、「-」印の緑ボタンをクリックして縮小、緑色の三角印をクリックして隣りの地図に切り替え


METAR-TAF: